TimeEET,TemperatureF,Dew PointF,Humidity,Sea Level PressureIn,VisibilityMPH,Wind Direction,Wind SpeedMPH,Gust SpeedMPH,PrecipitationIn,Events,Conditions,WindDirDegrees,DateUTC
12:20 AM,46.4,42.8,87,29.83,6.2,South,9.2,-,N/A,,Scattered Clouds,190,2013-02-10 22:20:00
12:50 AM,48.2,42.8,82,29.83,6.2,South,4.6,-,N/A,,Scattered Clouds,190,2013-02-10 22:50:00
1:20 AM,48.2,42.8,82,29.83,6.2,SSW,5.8,-,N/A,,Mostly Cloudy,210,2013-02-10 23:20:00
1:50 AM,48.2,42.8,82,29.83,6.2,SW,4.6,-,N/A,,Mostly Cloudy,220,2013-02-10 23:50:00
2:00 AM,47,42,79,29.85,6,SW,4.6,,,,Partly Cloudy,220,2013-02-11 00:00:00
2:20 AM,48.2,41.0,76,29.83,6.2,SSW,5.8,-,N/A,,Mostly Cloudy,200,2013-02-11 00:20:00
3:20 AM,46.4,41.0,81,29.83,6.2,SSW,4.6,-,N/A,,Mostly Cloudy,210,2013-02-11 01:20:00
3:50 AM,46.4,42.8,87,29.83,6.2,SW,4.6,-,N/A,,Mostly Cloudy,220,2013-02-11 01:50:00
4:20 AM,46.4,42.8,87,29.83,6.2,West,3.5,-,N/A,,Mostly Cloudy,270,2013-02-11 02:20:00
4:50 AM,46.4,42.8,87,29.83,6.2,WSW,4.6,-,N/A,,Mostly Cloudy,240,2013-02-11 02:50:00
5:20 AM,46.4,44.6,93,29.83,6.2,WNW,3.5,-,N/A,,Mostly Cloudy,300,2013-02-11 03:20:00
5:50 AM,46.4,42.8,87,29.83,6.2,WNW,3.5,-,N/A,,Mostly Cloudy,290,2013-02-11 03:50:00
6:20 AM,46.4,44.6,93,29.83,6.2,NNW,6.9,-,N/A,,Mostly Cloudy,340,2013-02-11 04:20:00
6:50 AM,46.4,44.6,93,29.83,6.2,NNW,8.1,-,N/A,,Mostly Cloudy,340,2013-02-11 04:50:00
7:20 AM,44.6,44.6,100,29.83,6.2,North,9.2,-,N/A,,Mostly Cloudy,350,2013-02-11 05:20:00
7:50 AM,44.6,44.6,100,29.83,6.2,North,9.2,-,N/A,,Mostly Cloudy,350,2013-02-11 05:50:00
8:00 AM,45,44,95,29.84,6,North,9.2,,,,Partly Cloudy,350,2013-02-11 06:00:00
8:20 AM,44.6,44.6,100,29.83,6.2,North,10.4,-,N/A,,Mostly Cloudy,350,2013-02-11 06:20:00
8:50 AM,46.4,44.6,93,29.83,3.7,North,11.5,-,N/A,,Mostly Cloudy,350,2013-02-11 06:50:00
9:20 AM,46.4,42.8,87,29.86,4.3,North,12.7,-,N/A,,Mostly Cloudy,350,2013-02-11 07:20:00
9:50 AM,46.4,42.8,87,29.86,5.0,North,12.7,-,N/A,,Mostly Cloudy,360,2013-02-11 07:50:00
10:20 AM,46.4,42.8,87,29.86,3.7,North,13.8,-,N/A,,Mostly Cloudy,350,2013-02-11 08:20:00
10:50 AM,46.4,42.8,87,29.86,5.0,North,12.7,-,N/A,,Mostly Cloudy,360,2013-02-11 08:50:00
11:20 AM,46.4,41.0,81,29.86,4.3,North,15.0,-,N/A,,Mostly Cloudy,360,2013-02-11 09:20:00
11:50 AM,46.4,41.0,81,29.86,6.2,North,15.0,-,N/A,,Mostly Cloudy,360,2013-02-11 09:50:00
12:20 PM,46.4,41.0,81,29.86,3.7,North,15.0,-,N/A,,Mostly Cloudy,360,2013-02-11 10:20:00
12:50 PM,46.4,41.0,81,29.86,3.7,North,16.1,-,N/A,Rain,Light Rain Showers,10,2013-02-11 10:50:00
1:20 PM,46.4,41.0,81,29.86,5.0,North,16.1,-,N/A,Rain,Light Rain Showers,360,2013-02-11 11:20:00
1:50 PM,44.6,41.0,87,29.83,4.3,North,16.1,-,N/A,,Mostly Cloudy,360,2013-02-11 11:50:00
2:00 PM,45,39,73,29.86,4,North,16.1,,,Rain,Light Rain Showers,0,2013-02-11 12:00:00
2:20 PM,46.4,39.2,76,29.83,4.3,North,17.3,-,N/A,,Mostly Cloudy,10,2013-02-11 12:20:00
2:50 PM,44.6,39.2,81,29.86,4.3,North,17.3,-,N/A,,Mostly Cloudy,10,2013-02-11 12:50:00
3:20 PM,44.6,37.4,76,29.86,4.3,North,15.0,-,N/A,,Mostly Cloudy,360,2013-02-11 13:20:00
3:50 PM,44.6,37.4,76,29.86,3.7,North,18.4,-,N/A,,Mostly Cloudy,10,2013-02-11 13:50:00
4:20 PM,44.6,37.4,76,29.89,5.0,North,17.3,-,N/A,,Mostly Cloudy,360,2013-02-11 14:20:00
4:50 PM,42.8,37.4,81,29.89,5.0,North,17.3,-,N/A,,Mostly Cloudy,360,2013-02-11 14:50:00
5:20 PM,42.8,37.4,81,29.92,5.0,North,19.6,-,N/A,,Mostly Cloudy,350,2013-02-11 15:20:00
5:50 PM,42.8,37.4,81,29.92,3.7,North,17.3,-,N/A,,Mostly Cloudy,360,2013-02-11 15:50:00
6:20 PM,42.8,37.4,81,29.95,4.3,North,19.6,-,N/A,,Mostly Cloudy,350,2013-02-11 16:20:00
6:50 PM,42.8,35.6,76,29.95,3.7,North,19.6,-,N/A,,Mostly Cloudy,360,2013-02-11 16:50:00
7:20 PM,41.0,35.6,81,29.95,5.0,North,17.3,-,N/A,,Mostly Cloudy,350,2013-02-11 17:20:00
7:50 PM,41.0,35.6,81,29.98,6.2,North,17.3,-,N/A,,Mostly Cloudy,360,2013-02-11 17:50:00
8:00 PM,41,35,73,29.99,6,North,17.3,,,,Partly Cloudy,0,2013-02-11 18:00:00
8:20 PM,41.0,37.4,87,30.01,4.3,North,16.1,-,N/A,Rain,Light Rain Showers,350,2013-02-11 18:20:00
8:50 PM,41.0,37.4,87,30.01,4.3,North,13.8,-,N/A,Rain,Light Rain Showers,350,2013-02-11 18:50:00
9:20 PM,41.0,37.4,87,30.01,4.3,North,13.8,-,N/A,Rain,Light Rain Showers,350,2013-02-11 19:20:00
9:50 PM,42.8,35.6,76,30.04,5.0,North,10.4,-,N/A,Rain,Light Rain Showers,10,2013-02-11 19:50:00
10:20 PM,41.0,37.4,87,30.04,6.2,North,11.5,-,N/A,,Scattered Clouds,350,2013-02-11 20:20:00
10:50 PM,41.0,35.6,81,30.04,6.2,North,10.4,-,N/A,,Mostly Cloudy,350,2013-02-11 20:50:00
11:20 PM,41.0,33.8,76,30.06,5.6,NNW,10.4,-,N/A,,Mostly Cloudy,340,2013-02-11 21:20:00
11:50 PM,41.0,35.6,81,30.06,6.2,North,9.2,-,N/A,,Mostly Cloudy,350,2013-02-11 21:50:00